createdAt,value
2022-12-11T00:00:39.068Z,7.90
2022-12-11T00:03:41.967Z,8.27
2022-12-11T00:06:44.707Z,7.37
2022-12-11T00:09:47.425Z,7.60
2022-12-11T00:12:51.451Z,8.40
2022-12-11T00:15:54.113Z,7.70
2022-12-11T00:18:56.813Z,8.03
2022-12-11T00:21:59.468Z,8.40
2022-12-11T00:25:02.168Z,8.43
2022-12-11T00:28:06.276Z,8.17
2022-12-11T00:31:10.776Z,8.33
2022-12-11T00:34:13.675Z,8.33
2022-12-11T00:37:16.474Z,8.40
2022-12-11T00:40:19.251Z,8.10
2022-12-11T00:43:23.297Z,8.37
2022-12-11T00:46:25.982Z,8.40
2022-12-11T00:49:28.860Z,8.97
2022-12-11T00:52:31.513Z,8.70
2022-12-11T00:55:38.725Z,8.20
2022-12-11T00:58:42.945Z,8.60
2022-12-11T01:01:45.711Z,8.90
2022-12-11T01:04:48.404Z,8.20
2022-12-11T01:07:51.156Z,8.63
2022-12-11T01:11:02.462Z,8.23
2022-12-11T01:14:06.629Z,8.07
2022-12-11T01:17:09.278Z,9.03
2022-12-11T01:20:12.761Z,8.43
2022-12-11T01:23:15.520Z,8.03
2022-12-11T01:26:18.686Z,8.27
2022-12-11T01:29:22.740Z,7.80
2022-12-11T01:32:25.464Z,8.47
2022-12-11T01:35:29.018Z,8.17
2022-12-11T01:38:31.707Z,8.57
2022-12-11T01:41:34.415Z,8.27
2022-12-11T01:45:19.643Z,8.20
2022-12-11T01:48:26.483Z,8.60
2022-12-11T01:51:32.166Z,7.50
2022-12-11T01:54:36.322Z,8.40
2022-12-11T01:57:42.299Z,8.37
2022-12-11T02:00:45.091Z,8.83
2022-12-11T02:03:49.585Z,7.87
2022-12-11T02:06:53.319Z,8.63
2022-12-11T02:09:56.019Z,8.00
2022-12-11T02:13:04.816Z,8.57
2022-12-11T02:16:16.821Z,7.97
2022-12-11T02:19:38.249Z,8.43
2022-12-11T02:22:58.466Z,7.87
2022-12-11T02:26:13.199Z,7.63
2022-12-11T02:29:23.893Z,7.37
2022-12-11T02:32:31.371Z,7.90
2022-12-11T02:35:38.938Z,8.23
2022-12-11T02:38:46.792Z,8.07
2022-12-11T02:41:52.339Z,8.30
2022-12-11T02:45:00.078Z,7.57
2022-12-11T02:48:06.555Z,8.23
2022-12-11T02:51:11.431Z,7.83
2022-12-11T02:54:20.537Z,7.70
2022-12-11T02:57:28.792Z,8.77
2022-12-11T03:00:33.008Z,8.70
2022-12-11T03:03:35.637Z,8.63
2022-12-11T03:06:44.275Z,7.77
2022-12-11T03:09:48.509Z,8.07
2022-12-11T03:12:55.715Z,7.93
2022-12-11T03:16:11.920Z,7.63
2022-12-11T03:19:23.445Z,7.97
2022-12-11T03:22:33.689Z,7.97
2022-12-11T03:25:45.734Z,7.93
2022-12-11T03:28:50.586Z,7.90
2022-12-11T03:31:59.433Z,8.40
2022-12-11T03:35:06.329Z,8.23
2022-12-11T03:38:14.654Z,8.70
2022-12-11T03:41:20.211Z,8.57
2022-12-11T03:44:25.103Z,8.90
2022-12-11T03:47:30.998Z,8.43
2022-12-11T03:50:36.470Z,9.13
2022-12-11T03:53:40.107Z,8.30
2022-12-11T03:56:45.122Z,8.97
2022-12-11T03:59:48.361Z,9.07
2022-12-11T04:03:12.710Z,9.13
2022-12-11T04:06:15.810Z,9.70
2022-12-11T04:09:18.498Z,8.97
2022-12-11T04:12:21.266Z,8.60
2022-12-11T04:15:23.868Z,8.40
2022-12-11T04:18:45.227Z,8.60
2022-12-11T04:22:05.449Z,8.30
2022-12-11T04:25:09.649Z,8.70
2022-12-11T04:28:12.531Z,8.50
2022-12-11T04:31:16.039Z,8.60
2022-12-11T04:34:20.087Z,9.47
2022-12-11T04:37:22.695Z,9.33
2022-12-11T04:40:25.632Z,8.80
2022-12-11T04:43:28.528Z,8.93
2022-12-11T04:46:31.568Z,9.07
2022-12-11T04:49:35.551Z,9.83
2022-12-11T04:52:38.161Z,9.47
2022-12-11T04:55:40.799Z,9.37
2022-12-11T04:58:45.124Z,8.97
2022-12-11T05:01:47.844Z,9.07
2022-12-11T05:04:51.999Z,8.43
2022-12-11T05:07:54.607Z,9.97
2022-12-11T05:10:58.073Z,9.60
2022-12-11T05:14:00.639Z,10.23
2022-12-11T05:17:03.284Z,9.30
2022-12-11T05:20:09.389Z,9.50
2022-12-11T05:23:11.977Z,9.63
2022-12-11T05:26:17.363Z,9.50
2022-12-11T05:29:19.980Z,9.33
2022-12-11T05:32:22.640Z,9.27
2022-12-11T05:35:26.607Z,10.00
2022-12-11T05:38:29.263Z,9.60
2022-12-11T05:41:33.504Z,9.33
2022-12-11T05:44:36.162Z,9.60
2022-12-11T05:47:38.869Z,9.33
2022-12-11T05:50:42.818Z,8.93
2022-12-11T05:53:47.199Z,9.87
2022-12-11T05:56:51.364Z,9.17
2022-12-11T05:59:53.948Z,9.90
2022-12-11T06:02:56.584Z,9.03
2022-12-11T06:06:02.739Z,9.20
2022-12-11T06:09:06.438Z,9.10
2022-12-11T06:12:09.012Z,9.23
2022-12-11T06:15:12.137Z,9.73
2022-12-11T06:18:14.877Z,10.17
2022-12-11T06:21:20.782Z,10.03
2022-12-11T06:24:23.389Z,9.47
2022-12-11T06:27:25.953Z,9.73
2022-12-11T06:30:38.283Z,9.07
2022-12-11T06:33:42.185Z,9.00
2022-12-11T06:36:46.108Z,9.13
2022-12-11T06:39:48.700Z,8.97
2022-12-11T06:42:51.303Z,9.67
2022-12-11T06:45:55.911Z,9.33
2022-12-11T06:49:01.815Z,9.20
2022-12-11T06:52:06.545Z,9.40
2022-12-11T06:55:09.945Z,8.60
2022-12-11T06:58:12.888Z,8.33
2022-12-11T07:01:18.395Z,9.40
2022-12-11T07:04:24.597Z,8.47
2022-12-11T07:07:28.566Z,8.83
2022-12-11T07:10:31.196Z,8.77
2022-12-11T07:13:34.421Z,9.47
2022-12-11T07:16:37.536Z,9.27
2022-12-11T07:19:40.710Z,9.07
2022-12-11T07:22:46.846Z,9.07
2022-12-11T07:25:49.593Z,8.80
2022-12-11T07:28:52.315Z,8.33
2022-12-11T07:31:55.028Z,8.67
2022-12-11T07:34:57.699Z,8.27
2022-12-11T07:38:01.621Z,9.03
2022-12-11T07:41:05.280Z,7.97
2022-12-11T07:44:07.876Z,8.43
2022-12-11T07:47:10.456Z,8.90
2022-12-11T07:50:13.143Z,8.67
2022-12-11T07:53:17.113Z,8.30
2022-12-11T07:56:20.274Z,9.33
2022-12-11T07:59:22.910Z,7.43
2022-12-11T08:02:25.545Z,8.23
2022-12-11T08:05:28.395Z,7.90
2022-12-11T08:08:32.543Z,8.97
2022-12-11T08:11:35.541Z,9.60
2022-12-11T08:14:38.166Z,9.27
2022-12-11T08:17:40.842Z,8.50
2022-12-11T08:20:43.415Z,8.57
2022-12-11T08:23:47.564Z,8.97
2022-12-11T08:26:50.270Z,8.87
2022-12-11T08:29:52.838Z,8.20
2022-12-11T08:32:55.429Z,9.07
2022-12-11T08:35:58.524Z,8.40
2022-12-11T08:39:02.479Z,8.70
2022-12-11T08:42:05.283Z,8.13
2022-12-11T08:45:09.447Z,8.37
2022-12-11T08:48:12.388Z,8.67
2022-12-11T08:51:17.623Z,8.37
2022-12-11T08:54:21.551Z,8.17
2022-12-11T08:57:24.134Z,8.90
2022-12-11T09:00:26.737Z,9.07
2022-12-11T09:03:29.309Z,9.97
2022-12-11T09:06:34.288Z,10.07
2022-12-11T09:09:38.229Z,9.47
2022-12-11T09:12:41.476Z,8.87
2022-12-11T09:15:44.246Z,8.87
2022-12-11T09:18:47.453Z,9.30
2022-12-11T09:21:50.099Z,9.13
2022-12-11T09:24:54.029Z,8.20
2022-12-11T09:27:56.618Z,8.13
2022-12-11T09:30:59.643Z,8.83
2022-12-11T09:34:04.916Z,8.83
2022-12-11T09:37:07.497Z,8.43
2022-12-11T09:40:13.759Z,8.87
2022-12-11T09:43:37.269Z,8.63
2022-12-11T09:46:41.627Z,8.90
2022-12-11T09:49:46.593Z,9.00
2022-12-11T09:52:58.817Z,7.63
2022-12-11T09:56:08.315Z,9.10
2022-12-11T09:59:22.775Z,8.87
2022-12-11T10:02:40.899Z,8.60
2022-12-11T10:05:51.243Z,8.87
2022-12-11T10:09:04.200Z,8.83
2022-12-11T10:12:21.704Z,8.87
2022-12-11T10:15:40.766Z,8.30
2022-12-11T10:18:43.687Z,8.33
2022-12-11T10:21:47.632Z,7.97
2022-12-11T10:25:10.635Z,7.93
2022-12-11T10:28:17.394Z,8.47
2022-12-11T10:31:24.130Z,8.57
2022-12-11T10:34:35.229Z,8.85
2022-12-11T10:37:37.884Z,10.75
2022-12-11T10:40:43.790Z,8.83
2022-12-11T10:43:49.983Z,8.50
2022-12-11T10:47:03.949Z,8.17
2022-12-11T10:50:07.064Z,7.53
2022-12-11T10:53:21.380Z,8.23
2022-12-11T10:56:29.228Z,7.80
2022-12-11T10:59:37.543Z,7.83
2022-12-11T11:02:41.885Z,7.73
2022-12-11T11:05:49.242Z,7.47
2022-12-11T11:08:53.764Z,7.50
2022-12-11T11:11:56.366Z,7.33
2022-12-11T11:15:05.636Z,8.10
2022-12-11T11:18:13.557Z,7.47
2022-12-11T11:21:17.775Z,7.70
2022-12-11T11:24:28.757Z,7.67
2022-12-11T11:27:36.930Z,8.33
2022-12-11T11:30:42.867Z,7.73
2022-12-11T11:33:52.308Z,7.90
2022-12-11T11:37:00.899Z,7.63
2022-12-11T11:40:09.937Z,7.83
2022-12-11T11:43:19.968Z,7.90
2022-12-11T11:46:27.161Z,7.40
2022-12-11T11:49:45.469Z,7.93
2022-12-11T11:52:53.029Z,8.03
2022-12-11T11:56:04.016Z,8.03
2022-12-11T11:59:15.125Z,8.43
2022-12-11T12:02:20.853Z,7.47
2022-12-11T12:05:39.282Z,7.53
2022-12-11T12:08:47.560Z,8.00
2022-12-11T12:11:57.334Z,8.40
2022-12-11T12:15:11.166Z,8.43
2022-12-11T12:18:26.047Z,8.50
2022-12-11T12:21:35.205Z,9.07
2022-12-11T12:24:48.234Z,9.37
2022-12-11T12:28:00.501Z,8.50
2022-12-11T12:31:18.112Z,8.03
2022-12-11T12:34:37.743Z,11.33
2022-12-11T12:37:52.018Z,9.60
2022-12-11T12:41:03.818Z,8.40
2022-12-11T12:44:16.809Z,9.40
2022-12-11T12:47:20.859Z,9.07
2022-12-11T12:50:28.303Z,9.53
2022-12-11T12:53:35.699Z,9.07
2022-12-11T12:56:40.575Z,8.57
2022-12-11T12:59:43.163Z,9.57
2022-12-11T13:02:51.201Z,9.80
2022-12-11T13:06:00.378Z,9.70
2022-12-11T13:09:17.003Z,9.33
2022-12-11T13:12:32.915Z,8.80
2022-12-11T13:15:40.885Z,8.40
2022-12-11T13:18:45.218Z,8.63
2022-12-11T13:21:58.269Z,9.40
2022-12-11T13:25:04.739Z,9.43
2022-12-11T13:28:08.675Z,9.70
2022-12-11T13:31:33.612Z,8.90
2022-12-11T13:34:38.923Z,9.63
2022-12-11T13:37:45.196Z,9.43
2022-12-11T13:40:53.120Z,9.30
2022-12-11T13:43:58.389Z,8.73
2022-12-11T13:47:04.514Z,9.40
2022-12-11T13:50:23.888Z,8.90
2022-12-11T13:53:28.214Z,9.87
2022-12-11T13:56:30.817Z,9.73
2022-12-11T13:59:35.845Z,9.67
2022-12-11T14:02:42.437Z,10.17
2022-12-11T14:05:45.234Z,10.10
2022-12-11T14:08:53.873Z,9.53
2022-12-11T14:11:59.073Z,9.40
2022-12-11T14:15:04.504Z,9.90
2022-12-11T14:18:07.279Z,9.30
2022-12-11T14:21:19.981Z,10.20
2022-12-11T14:24:24.257Z,11.73
2022-12-11T14:27:28.662Z,11.53
2022-12-11T14:30:34.237Z,10.97
2022-12-11T14:33:42.003Z,12.97
2022-12-11T14:36:46.062Z,11.27
2022-12-11T14:39:57.777Z,12.60
2022-12-11T14:43:03.962Z,12.53
2022-12-11T14:46:11.954Z,10.67
2022-12-11T14:49:20.240Z,9.73
2022-12-11T14:52:30.172Z,11.63
2022-12-11T14:55:36.513Z,11.30
2022-12-11T14:58:43.279Z,11.53
2022-12-11T15:01:46.214Z,11.50
2022-12-11T15:05:06.251Z,11.93
2022-12-11T15:08:24.623Z,12.90
2022-12-11T15:11:32.881Z,12.37
2022-12-11T15:14:35.728Z,13.17
2022-12-11T15:17:38.352Z,15.67
2022-12-11T15:20:41.038Z,14.77
2022-12-11T15:23:52.353Z,15.20
2022-12-11T15:27:00.978Z,14.63
2022-12-11T15:30:03.854Z,15.53
2022-12-11T15:33:20.260Z,15.93
2022-12-11T15:36:26.541Z,14.73
2022-12-11T15:39:29.141Z,13.27
2022-12-11T15:42:36.220Z,12.70
2022-12-11T15:45:38.800Z,11.93
2022-12-11T15:48:41.439Z,14.30
2022-12-11T15:51:44.012Z,15.30
2022-12-11T15:54:46.641Z,14.73
2022-12-11T15:57:55.158Z,13.57
2022-12-11T16:00:59.003Z,13.47
2022-12-11T16:04:05.187Z,13.60
2022-12-11T16:07:16.257Z,13.23
2022-12-11T16:10:20.504Z,12.67
2022-12-11T16:13:24.443Z,12.43
2022-12-11T16:16:27.032Z,12.93
2022-12-11T16:19:29.631Z,11.90
2022-12-11T16:22:32.237Z,13.77
2022-12-11T16:25:35.093Z,12.90
2022-12-11T16:28:39.018Z,13.80
2022-12-11T16:31:41.604Z,12.57
2022-12-11T16:34:44.837Z,12.90
2022-12-11T16:37:50.172Z,13.43
2022-12-11T16:41:00.763Z,13.33
2022-12-11T16:44:04.897Z,13.47
2022-12-11T16:47:07.592Z,13.07
2022-12-11T16:50:10.922Z,12.80
2022-12-11T16:53:15.294Z,15.03
2022-12-11T16:56:17.880Z,12.50
2022-12-11T16:59:21.849Z,14.20
2022-12-11T17:02:24.584Z,11.87
2022-12-11T17:05:27.218Z,12.97
2022-12-11T17:08:29.874Z,12.77
2022-12-11T17:11:32.495Z,11.00
2022-12-11T17:14:36.549Z,11.60
2022-12-11T17:17:39.216Z,10.50
2022-12-11T17:20:42.655Z,11.30
2022-12-11T17:23:45.803Z,12.23
2022-12-11T17:26:48.456Z,10.87
2022-12-11T17:29:52.384Z,11.80
2022-12-11T17:32:54.963Z,12.10
2022-12-11T17:36:00.306Z,24.13
2022-12-11T17:39:02.982Z,22.70
2022-12-11T17:42:06.308Z,19.80
2022-12-11T17:45:11.597Z,15.57
2022-12-11T17:48:15.256Z,12.27
2022-12-11T17:51:23.573Z,11.50
2022-12-11T17:54:26.236Z,11.17
2022-12-11T17:57:28.820Z,11.50
2022-12-11T18:00:33.497Z,11.47
2022-12-11T18:03:36.898Z,13.87
2022-12-11T18:06:39.595Z,12.73
2022-12-11T18:09:42.501Z,14.30
2022-12-11T18:12:45.245Z,13.57
2022-12-11T18:16:00.418Z,13.73
2022-12-11T18:19:03.111Z,13.70
2022-12-11T18:22:05.693Z,13.37
2022-12-11T18:25:10.155Z,14.57
2022-12-11T18:28:14.319Z,15.73
2022-12-11T18:31:19.487Z,14.23
2022-12-11T18:34:22.150Z,13.33
2022-12-11T18:37:27.884Z,14.47
2022-12-11T18:40:30.905Z,15.27
2022-12-11T18:43:33.597Z,15.67
2022-12-11T18:46:39.240Z,15.20
2022-12-11T18:49:41.902Z,16.30
2022-12-11T18:52:44.470Z,17.63
2022-12-11T18:55:49.793Z,15.73
2022-12-11T18:58:53.074Z,14.83
2022-12-11T19:01:57.034Z,15.47
2022-12-11T19:04:59.672Z,18.03
2022-12-11T19:08:02.495Z,21.77
2022-12-11T19:11:05.394Z,17.83
2022-12-11T19:14:09.294Z,15.23
2022-12-11T19:17:13.271Z,16.07
2022-12-11T19:20:47.651Z,15.87
2022-12-11T19:23:38.594Z,15.73
2022-12-11T19:26:41.240Z,14.10
2022-12-11T19:29:43.834Z,14.33
2022-12-11T19:32:47.841Z,13.50
2022-12-11T19:35:50.474Z,15.03
2022-12-11T19:38:57.928Z,13.63
2022-12-11T19:42:03.722Z,13.63
2022-12-11T19:45:07.455Z,14.50
2022-12-11T19:48:11.639Z,15.13
2022-12-11T19:51:16.620Z,15.20
2022-12-11T19:54:19.330Z,15.70
2022-12-11T19:57:21.907Z,14.73
2022-12-11T20:00:24.578Z,16.17
2022-12-11T20:03:28.995Z,17.43
2022-12-11T20:06:33.491Z,17.20
2022-12-11T20:09:36.100Z,17.47
2022-12-11T20:12:38.712Z,19.87
2022-12-11T20:15:41.581Z,19.43
2022-12-11T20:18:46.181Z,19.67
2022-12-11T20:21:48.993Z,17.87
2022-12-11T20:24:51.776Z,18.10
2022-12-11T20:27:55.570Z,18.27
2022-12-11T20:31:04.743Z,18.57
2022-12-11T20:34:08.880Z,18.10
2022-12-11T20:37:11.494Z,16.73
2022-12-11T20:40:14.306Z,18.80
2022-12-11T20:43:17.086Z,18.10
2022-12-11T20:46:20.298Z,19.20
2022-12-11T20:49:24.334Z,17.43
2022-12-11T20:52:27.930Z,17.13
2022-12-11T20:55:30.518Z,17.70
2022-12-11T20:58:33.104Z,17.60
2022-12-11T21:01:35.852Z,17.87
2022-12-11T21:04:41.240Z,18.27
2022-12-11T21:07:43.856Z,17.87
2022-12-11T21:10:47.272Z,17.63
2022-12-11T21:13:50.488Z,17.03
2022-12-11T21:16:53.156Z,17.63
2022-12-11T21:19:57.138Z,16.47
2022-12-11T21:22:59.874Z,17.20
2022-12-11T21:26:03.121Z,17.57
2022-12-11T21:29:05.758Z,17.50
2022-12-11T21:32:08.429Z,17.77
2022-12-11T21:35:13.429Z,16.60
2022-12-11T21:38:16.239Z,18.03
2022-12-11T21:41:21.483Z,17.27
2022-12-11T21:47:46.654Z,18.10
2022-12-11T21:50:51.553Z,17.23
2022-12-11T21:53:54.583Z,16.70
2022-12-11T21:56:57.642Z,17.50
2022-12-11T22:00:00.818Z,18.23
2022-12-11T22:03:03.426Z,18.23
2022-12-11T22:06:07.978Z,18.40
2022-12-11T22:09:12.345Z,18.00
2022-12-11T22:12:23.049Z,16.93
2022-12-11T22:15:25.649Z,17.47
2022-12-11T22:18:28.409Z,17.00
2022-12-11T22:21:32.411Z,17.63
2022-12-11T22:24:34.997Z,17.63
2022-12-11T22:27:37.579Z,18.47
2022-12-11T22:30:40.264Z,17.10
2022-12-11T22:33:43.084Z,17.97
2022-12-11T22:36:47.036Z,16.87
2022-12-11T22:39:49.689Z,17.13
2022-12-11T22:42:52.316Z,16.83
2022-12-11T22:45:55.105Z,17.27
2022-12-11T22:48:59.354Z,16.93
2022-12-11T22:52:03.302Z,17.03
2022-12-11T22:55:07.148Z,17.23
2022-12-11T22:58:09.746Z,17.50
2022-12-11T23:01:14.874Z,17.40
2022-12-11T23:04:17.487Z,17.47
2022-12-11T23:07:21.439Z,17.03
2022-12-11T23:10:24.037Z,16.73
2022-12-11T23:13:26.662Z,17.63
2022-12-11T23:16:29.731Z,17.60
2022-12-11T23:19:32.535Z,17.07
2022-12-11T23:22:36.479Z,17.97
2022-12-11T23:25:39.124Z,16.37
2022-12-11T23:28:42.563Z,16.93
2022-12-11T23:31:45.188Z,17.70
2022-12-11T23:34:47.785Z,17.33
2022-12-11T23:37:51.745Z,16.83
2022-12-11T23:40:55.081Z,16.47
2022-12-11T23:43:57.656Z,16.83
2022-12-11T23:47:00.516Z,16.47
2022-12-11T23:50:03.094Z,16.13
2022-12-11T23:53:07.333Z,17.20
2022-12-11T23:56:14.765Z,17.17
2022-12-11T23:59:17.353Z,15.47
